sensor_id;sensor_type;location;lat;lon;timestamp;P1;durP1;ratioP1;P2;durP2;ratioP2
32976;SDS011;47687;50.842;4.450;2022-08-18T00:01:25;14.52;;;8.02;;
32976;SDS011;47687;50.842;4.450;2022-08-18T00:03:51;6.85;;;6.25;;
32976;SDS011;47687;50.842;4.450;2022-08-18T00:06:17;8.70;;;6.72;;
32976;SDS011;47687;50.842;4.450;2022-08-18T00:08:43;8.40;;;7.50;;
32976;SDS011;47687;50.842;4.450;2022-08-18T00:11:09;14.02;;;8.65;;
32976;SDS011;47687;50.842;4.450;2022-08-18T00:13:34;9.35;;;8.10;;
32976;SDS011;47687;50.842;4.450;2022-08-18T00:16:00;10.35;;;7.38;;
32976;SDS011;47687;50.842;4.450;2022-08-18T00:18:29;9.02;;;7.07;;
32976;SDS011;47687;50.842;4.450;2022-08-18T00:20:54;15.18;;;7.30;;
32976;SDS011;47687;50.842;4.450;2022-08-18T00:23:20;7.20;;;6.47;;
32976;SDS011;47687;50.842;4.450;2022-08-18T00:25:46;9.32;;;7.57;;
32976;SDS011;47687;50.842;4.450;2022-08-18T00:28:13;13.75;;;9.38;;
32976;SDS011;47687;50.842;4.450;2022-08-18T00:30:39;23.95;;;9.68;;
32976;SDS011;47687;50.842;4.450;2022-08-18T00:33:05;19.17;;;13.93;;
32976;SDS011;47687;50.842;4.450;2022-08-18T00:35:32;23.10;;;15.05;;
32976;SDS011;47687;50.842;4.450;2022-08-18T00:38:03;21.13;;;17.60;;
32976;SDS011;47687;50.842;4.450;2022-08-18T00:40:32;20.98;;;12.35;;
32976;SDS011;47687;50.842;4.450;2022-08-18T00:43:03;12.40;;;10.88;;
32976;SDS011;47687;50.842;4.450;2022-08-18T00:45:32;12.80;;;11.57;;
32976;SDS011;47687;50.842;4.450;2022-08-18T00:48:00;12.73;;;11.52;;
32976;SDS011;47687;50.842;4.450;2022-08-18T00:50:34;31.27;;;17.83;;
32976;SDS011;47687;50.842;4.450;2022-08-18T00:53:11;17.05;;;15.07;;
32976;SDS011;47687;50.842;4.450;2022-08-18T00:55:51;17.13;;;15.35;;
32976;SDS011;47687;50.842;4.450;2022-08-18T00:58:29;24.33;;;16.30;;
32976;SDS011;47687;50.842;4.450;2022-08-18T01:01:01;15.05;;;13.55;;
32976;SDS011;47687;50.842;4.450;2022-08-18T01:03:31;25.17;;;12.60;;
32976;SDS011;47687;50.842;4.450;2022-08-18T01:06:00;18.67;;;13.18;;
32976;SDS011;47687;50.842;4.450;2022-08-18T01:08:31;15.23;;;13.15;;
32976;SDS011;47687;50.842;4.450;2022-08-18T01:10:57;16.05;;;14.07;;
32976;SDS011;47687;50.842;4.450;2022-08-18T01:13:26;20.77;;;17.50;;
32976;SDS011;47687;50.842;4.450;2022-08-18T01:15:57;31.30;;;19.05;;
32976;SDS011;47687;50.842;4.450;2022-08-18T01:18:23;26.65;;;19.05;;
32976;SDS011;47687;50.842;4.450;2022-08-18T01:21:11;25.58;;;19.67;;
32976;SDS011;47687;50.842;4.450;2022-08-18T01:24:14;32.22;;;18.50;;
32976;SDS011;47687;50.842;4.450;2022-08-18T01:26:41;28.63;;;18.63;;
32976;SDS011;47687;50.842;4.450;2022-08-18T01:29:14;21.98;;;18.38;;
32976;SDS011;47687;50.842;4.450;2022-08-18T01:31:50;20.55;;;15.32;;
32976;SDS011;47687;50.842;4.450;2022-08-18T01:34:22;34.15;;;15.25;;
32976;SDS011;47687;50.842;4.450;2022-08-18T01:39:19;12.27;;;11.00;;
32976;SDS011;47687;50.842;4.450;2022-08-18T01:41:45;20.17;;;13.27;;
32976;SDS011;47687;50.842;4.450;2022-08-18T01:44:11;17.60;;;13.02;;
32976;SDS011;47687;50.842;4.450;2022-08-18T01:46:39;16.10;;;12.45;;
32976;SDS011;47687;50.842;4.450;2022-08-18T01:49:05;11.37;;;8.97;;
32976;SDS011;47687;50.842;4.450;2022-08-18T01:51:32;10.38;;;8.63;;
32976;SDS011;47687;50.842;4.450;2022-08-18T01:53:59;14.52;;;12.77;;
32976;SDS011;47687;50.842;4.450;2022-08-18T01:56:26;21.70;;;13.45;;
32976;SDS011;47687;50.842;4.450;2022-08-18T01:58:52;13.85;;;12.02;;
32976;SDS011;47687;50.842;4.450;2022-08-18T02:01:19;16.10;;;12.02;;
32976;SDS011;47687;50.842;4.450;2022-08-18T02:03:47;31.65;;;14.50;;
32976;SDS011;47687;50.842;4.450;2022-08-18T02:06:16;16.50;;;12.05;;
32976;SDS011;47687;50.842;4.450;2022-08-18T02:08:43;18.67;;;15.27;;
32976;SDS011;47687;50.842;4.450;2022-08-18T02:11:09;25.13;;;16.83;;
32976;SDS011;47687;50.842;4.450;2022-08-18T02:13:36;21.85;;;15.48;;
32976;SDS011;47687;50.842;4.450;2022-08-18T02:16:02;14.05;;;11.82;;
32976;SDS011;47687;50.842;4.450;2022-08-18T02:18:31;11.63;;;9.73;;
32976;SDS011;47687;50.842;4.450;2022-08-18T02:21:11;20.83;;;12.65;;
32976;SDS011;47687;50.842;4.450;2022-08-18T02:23:40;11.67;;;9.70;;
32976;SDS011;47687;50.842;4.450;2022-08-18T02:26:08;13.88;;;12.32;;
32976;SDS011;47687;50.842;4.450;2022-08-18T02:28:38;14.75;;;12.30;;
32976;SDS011;47687;50.842;4.450;2022-08-18T02:31:16;15.90;;;13.80;;
32976;SDS011;47687;50.842;4.450;2022-08-18T02:33:43;22.80;;;15.20;;
32976;SDS011;47687;50.842;4.450;2022-08-18T02:36:10;17.33;;;13.10;;
32976;SDS011;47687;50.842;4.450;2022-08-18T02:38:39;17.92;;;14.32;;
32976;SDS011;47687;50.842;4.450;2022-08-18T02:41:06;15.00;;;11.83;;
32976;SDS011;47687;50.842;4.450;2022-08-18T02:43:33;14.52;;;12.48;;
32976;SDS011;47687;50.842;4.450;2022-08-18T02:45:59;29.77;;;13.85;;
32976;SDS011;47687;50.842;4.450;2022-08-18T02:48:25;14.52;;;11.70;;
32976;SDS011;47687;50.842;4.450;2022-08-18T02:51:04;12.48;;;9.48;;
32976;SDS011;47687;50.842;4.450;2022-08-18T02:53:38;11.43;;;10.05;;
32976;SDS011;47687;50.842;4.450;2022-08-18T02:56:07;9.50;;;8.55;;
32976;SDS011;47687;50.842;4.450;2022-08-18T03:01:25;26.58;;;10.73;;
32976;SDS011;47687;50.842;4.450;2022-08-18T03:03:56;29.58;;;12.25;;
32976;SDS011;47687;50.842;4.450;2022-08-18T03:06:23;20.73;;;12.23;;
32976;SDS011;47687;50.842;4.450;2022-08-18T03:08:50;10.32;;;9.18;;
32976;SDS011;47687;50.842;4.450;2022-08-18T03:11:17;15.50;;;11.75;;
32976;SDS011;47687;50.842;4.450;2022-08-18T03:13:45;18.52;;;9.10;;
32976;SDS011;47687;50.842;4.450;2022-08-18T03:16:11;12.52;;;10.43;;
32976;SDS011;47687;50.842;4.450;2022-08-18T03:18:38;16.58;;;9.52;;
32976;SDS011;47687;50.842;4.450;2022-08-18T03:21:06;11.43;;;10.27;;
32976;SDS011;47687;50.842;4.450;2022-08-18T03:23:36;13.93;;;9.27;;
32976;SDS011;47687;50.842;4.450;2022-08-18T03:26:04;13.95;;;9.75;;
32976;SDS011;47687;50.842;4.450;2022-08-18T03:28:36;19.98;;;10.23;;
32976;SDS011;47687;50.842;4.450;2022-08-18T03:31:03;12.57;;;10.38;;
32976;SDS011;47687;50.842;4.450;2022-08-18T03:33:29;23.55;;;11.57;;
32976;SDS011;47687;50.842;4.450;2022-08-18T03:35:55;13.23;;;11.70;;
32976;SDS011;47687;50.842;4.450;2022-08-18T03:38:20;10.77;;;9.55;;
32976;SDS011;47687;50.842;4.450;2022-08-18T03:40:53;10.15;;;9.20;;
32976;SDS011;47687;50.842;4.450;2022-08-18T03:43:18;12.80;;;8.98;;
32976;SDS011;47687;50.842;4.450;2022-08-18T03:45:44;9.80;;;7.63;;
32976;SDS011;47687;50.842;4.450;2022-08-18T03:48:10;12.68;;;11.32;;
32976;SDS011;47687;50.842;4.450;2022-08-18T03:50:36;22.10;;;11.75;;
32976;SDS011;47687;50.842;4.450;2022-08-18T03:53:05;16.98;;;12.23;;
32976;SDS011;47687;50.842;4.450;2022-08-18T03:55:48;14.15;;;11.25;;
32976;SDS011;47687;50.842;4.450;2022-08-18T03:58:21;22.73;;;12.57;;
32976;SDS011;47687;50.842;4.450;2022-08-18T04:00:48;13.77;;;11.40;;
32976;SDS011;47687;50.842;4.450;2022-08-18T04:03:14;15.45;;;11.05;;
32976;SDS011;47687;50.842;4.450;2022-08-18T04:05:40;15.23;;;11.07;;
32976;SDS011;47687;50.842;4.450;2022-08-18T04:08:05;20.02;;;13.60;;
32976;SDS011;47687;50.842;4.450;2022-08-18T04:10:32;14.35;;;10.98;;
32976;SDS011;47687;50.842;4.450;2022-08-18T04:12:59;14.65;;;12.73;;
32976;SDS011;47687;50.842;4.450;2022-08-18T04:15:25;15.73;;;13.20;;
32976;SDS011;47687;50.842;4.450;2022-08-18T04:17:51;13.60;;;12.20;;
32976;SDS011;47687;50.842;4.450;2022-08-18T04:20:20;12.13;;;9.13;;
32976;SDS011;47687;50.842;4.450;2022-08-18T04:22:48;17.65;;;8.63;;
32976;SDS011;47687;50.842;4.450;2022-08-18T04:25:23;12.45;;;10.55;;
32976;SDS011;47687;50.842;4.450;2022-08-18T04:27:56;16.00;;;9.63;;
32976;SDS011;47687;50.842;4.450;2022-08-18T04:30:25;21.45;;;13.90;;
32976;SDS011;47687;50.842;4.450;2022-08-18T04:32:53;13.90;;;11.52;;
32976;SDS011;47687;50.842;4.450;2022-08-18T04:35:18;8.93;;;8.02;;
32976;SDS011;47687;50.842;4.450;2022-08-18T04:37:44;11.90;;;9.35;;
32976;SDS011;47687;50.842;4.450;2022-08-18T04:40:10;9.70;;;8.75;;
32976;SDS011;47687;50.842;4.450;2022-08-18T04:42:38;20.05;;;9.48;;
32976;SDS011;47687;50.842;4.450;2022-08-18T04:45:04;8.43;;;7.57;;
32976;SDS011;47687;50.842;4.450;2022-08-18T04:47:30;12.63;;;9.48;;
32976;SDS011;47687;50.842;4.450;2022-08-18T04:49:56;10.80;;;7.75;;
32976;SDS011;47687;50.842;4.450;2022-08-18T04:52:22;12.63;;;7.72;;
32976;SDS011;47687;50.842;4.450;2022-08-18T04:55:06;9.80;;;8.80;;
32976;SDS011;47687;50.842;4.450;2022-08-18T04:57:33;8.75;;;7.78;;
32976;SDS011;47687;50.842;4.450;2022-08-18T05:00:03;15.43;;;7.65;;
32976;SDS011;47687;50.842;4.450;2022-08-18T05:02:30;8.52;;;7.32;;
32976;SDS011;47687;50.842;4.450;2022-08-18T05:04:56;8.02;;;6.60;;
32976;SDS011;47687;50.842;4.450;2022-08-18T05:07:22;8.50;;;6.35;;
32976;SDS011;47687;50.842;4.450;2022-08-18T05:09:48;9.02;;;7.22;;
32976;SDS011;47687;50.842;4.450;2022-08-18T05:12:15;10.90;;;8.40;;
32976;SDS011;47687;50.842;4.450;2022-08-18T05:14:42;9.60;;;6.70;;
32976;SDS011;47687;50.842;4.450;2022-08-18T05:17:09;6.55;;;5.95;;
32976;SDS011;47687;50.842;4.450;2022-08-18T05:19:35;6.80;;;6.20;;
32976;SDS011;47687;50.842;4.450;2022-08-18T05:22:01;10.57;;;7.10;;
32976;SDS011;47687;50.842;4.450;2022-08-18T05:24:28;6.80;;;5.70;;
32976;SDS011;47687;50.842;4.450;2022-08-18T05:26:55;5.50;;;5.10;;
32976;SDS011;47687;50.842;4.450;2022-08-18T05:29:21;7.80;;;7.05;;
32976;SDS011;47687;50.842;4.450;2022-08-18T05:31:47;9.32;;;7.13;;
32976;SDS011;47687;50.842;4.450;2022-08-18T05:34:15;7.65;;;6.88;;
32976;SDS011;47687;50.842;4.450;2022-08-18T05:41:45;6.80;;;6.00;;
32976;SDS011;47687;50.842;4.450;2022-08-18T05:44:14;9.70;;;7.53;;
32976;SDS011;47687;50.842;4.450;2022-08-18T05:46:49;16.23;;;8.75;;
32976;SDS011;47687;50.842;4.450;2022-08-18T05:49:17;6.80;;;6.13;;
32976;SDS011;47687;50.842;4.450;2022-08-18T05:51:45;15.50;;;7.93;;
32976;SDS011;47687;50.842;4.450;2022-08-18T05:54:38;11.15;;;9.00;;
32976;SDS011;47687;50.842;4.450;2022-08-18T05:57:35;12.77;;;8.23;;
32976;SDS011;47687;50.842;4.450;2022-08-18T06:00:07;16.15;;;8.25;;
32976;SDS011;47687;50.842;4.450;2022-08-18T06:05:12;7.03;;;6.03;;
32976;SDS011;47687;50.842;4.450;2022-08-18T06:07:48;14.35;;;6.43;;
32976;SDS011;47687;50.842;4.450;2022-08-18T06:10:22;5.78;;;5.28;;
32976;SDS011;47687;50.842;4.450;2022-08-18T06:12:48;8.38;;;6.95;;
32976;SDS011;47687;50.842;4.450;2022-08-18T06:23:13;7.85;;;4.68;;
32976;SDS011;47687;50.842;4.450;2022-08-18T06:28:34;15.27;;;7.50;;
32976;SDS011;47687;50.842;4.450;2022-08-18T06:31:34;6.65;;;6.00;;
32976;SDS011;47687;50.842;4.450;2022-08-18T06:34:13;11.90;;;9.73;;
32976;SDS011;47687;50.842;4.450;2022-08-18T06:37:00;8.45;;;7.38;;
32976;SDS011;47687;50.842;4.450;2022-08-18T06:39:39;7.65;;;6.95;;
32976;SDS011;47687;50.842;4.450;2022-08-18T06:42:10;8.35;;;6.13;;
32976;SDS011;47687;50.842;4.450;2022-08-18T06:44:48;7.32;;;6.63;;
32976;SDS011;47687;50.842;4.450;2022-08-18T06:52:27;8.50;;;7.53;;
32976;SDS011;47687;50.842;4.450;2022-08-18T06:54:57;7.90;;;7.13;;
32976;SDS011;47687;50.842;4.450;2022-08-18T06:58:20;10.25;;;5.60;;
32976;SDS011;47687;50.842;4.450;2022-08-18T07:02:45;7.38;;;5.53;;
32976;SDS011;47687;50.842;4.450;2022-08-18T07:08:00;6.72;;;5.47;;
32976;SDS011;47687;50.842;4.450;2022-08-18T07:10:32;5.75;;;4.93;;
32976;SDS011;47687;50.842;4.450;2022-08-18T07:13:07;6.20;;;4.85;;
32976;SDS011;47687;50.842;4.450;2022-08-18T07:15:43;4.75;;;4.22;;
32976;SDS011;47687;50.842;4.450;2022-08-18T07:18:09;15.55;;;5.35;;
32976;SDS011;47687;50.842;4.450;2022-08-18T07:20:41;8.13;;;3.65;;
32976;SDS011;47687;50.842;4.450;2022-08-18T07:23:06;7.43;;;2.67;;
32976;SDS011;47687;50.842;4.450;2022-08-18T07:25:40;4.93;;;3.63;;
32976;SDS011;47687;50.842;4.450;2022-08-18T07:33:36;3.67;;;3.17;;
32976;SDS011;47687;50.842;4.450;2022-08-18T07:36:04;3.40;;;3.10;;
32976;SDS011;47687;50.842;4.450;2022-08-18T07:43:40;1.08;;;0.98;;
32976;SDS011;47687;50.842;4.450;2022-08-18T07:46:57;5.65;;;2.40;;
32976;SDS011;47687;50.842;4.450;2022-08-18T07:49:05;1.35;;;1.10;;
32976;SDS011;47687;50.842;4.450;2022-08-18T07:51:47;2.53;;;1.63;;
32976;SDS011;47687;50.842;4.450;2022-08-18T07:54:34;3.72;;;1.67;;
32976;SDS011;47687;50.842;4.450;2022-08-18T08:00:18;2.58;;;1.85;;
32976;SDS011;47687;50.842;4.450;2022-08-18T08:05:48;1.57;;;1.47;;
32976;SDS011;47687;50.842;4.450;2022-08-18T08:16:47;2.22;;;1.80;;
32976;SDS011;47687;50.842;4.450;2022-08-18T08:22:18;1.33;;;1.23;;
32976;SDS011;47687;50.842;4.450;2022-08-18T08:25:09;2.08;;;1.83;;
32976;SDS011;47687;50.842;4.450;2022-08-18T08:27:55;2.67;;;1.90;;
32976;SDS011;47687;50.842;4.450;2022-08-18T08:33:37;1.98;;;1.33;;
32976;SDS011;47687;50.842;4.450;2022-08-18T08:36:11;0.95;;;0.95;;
32976;SDS011;47687;50.842;4.450;2022-08-18T08:38:44;19.70;;;1.15;;
32976;SDS011;47687;50.842;4.450;2022-08-18T08:44:21;0.80;;;0.80;;
32976;SDS011;47687;50.842;4.450;2022-08-18T08:49:51;1.73;;;1.63;;
32976;SDS011;47687;50.842;4.450;2022-08-18T08:52:26;2.83;;;2.63;;
32976;SDS011;47687;50.842;4.450;2022-08-18T08:57:36;1.80;;;1.50;;
32976;SDS011;47687;50.842;4.450;2022-08-18T09:00:07;2.50;;;1.80;;
32976;SDS011;47687;50.842;4.450;2022-08-18T09:02:53;1.35;;;1.25;;
32976;SDS011;47687;50.842;4.450;2022-08-18T09:05:36;2.08;;;1.92;;
32976;SDS011;47687;50.842;4.450;2022-08-18T09:08:40;3.80;;;3.50;;
32976;SDS011;47687;50.842;4.450;2022-08-18T09:16:42;2.67;;;1.10;;
32976;SDS011;47687;50.842;4.450;2022-08-18T09:19:14;4.28;;;2.38;;
32976;SDS011;47687;50.842;4.450;2022-08-18T09:24:46;4.32;;;2.40;;
32976;SDS011;47687;50.842;4.450;2022-08-18T09:35:46;6.35;;;3.05;;
32976;SDS011;47687;50.842;4.450;2022-08-18T09:38:23;2.17;;;1.88;;
32976;SDS011;47687;50.842;4.450;2022-08-18T09:41:11;6.57;;;2.13;;
32976;SDS011;47687;50.842;4.450;2022-08-18T09:44:04;1.05;;;0.98;;
32976;SDS011;47687;50.842;4.450;2022-08-18T09:51:49;1.13;;;1.10;;
32976;SDS011;47687;50.842;4.450;2022-08-18T09:54:17;0.70;;;0.70;;
32976;SDS011;47687;50.842;4.450;2022-08-18T10:01:59;5.80;;;1.73;;
32976;SDS011;47687;50.842;4.450;2022-08-18T10:04:40;1.73;;;1.48;;
32976;SDS011;47687;50.842;4.450;2022-08-18T10:12:35;4.90;;;1.67;;
32976;SDS011;47687;50.842;4.450;2022-08-18T10:17:55;0.47;;;0.45;;
32976;SDS011;47687;50.842;4.450;2022-08-18T10:29:03;0.43;;;0.30;;
32976;SDS011;47687;50.842;4.450;2022-08-18T10:31:30;0.40;;;0.40;;
32976;SDS011;47687;50.842;4.450;2022-08-18T10:37:00;0.55;;;0.55;;
32976;SDS011;47687;50.842;4.450;2022-08-18T10:39:49;1.02;;;0.77;;
32976;SDS011;47687;50.842;4.450;2022-08-18T10:42:27;2.85;;;1.10;;
32976;SDS011;47687;50.842;4.450;2022-08-18T10:45:19;0.80;;;0.80;;
32976;SDS011;47687;50.842;4.450;2022-08-18T10:47:44;3.72;;;0.70;;
32976;SDS011;47687;50.842;4.450;2022-08-18T10:50:28;0.65;;;0.60;;
32976;SDS011;47687;50.842;4.450;2022-08-18T11:06:22;2.45;;;1.63;;
32976;SDS011;47687;50.842;4.450;2022-08-18T11:08:51;3.08;;;1.10;;
32976;SDS011;47687;50.842;4.450;2022-08-18T11:11:25;0.60;;;0.60;;
32976;SDS011;47687;50.842;4.450;2022-08-18T11:14:57;0.50;;;0.50;;
32976;SDS011;47687;50.842;4.450;2022-08-18T11:19:40;0.45;;;0.45;;
32976;SDS011;47687;50.842;4.450;2022-08-18T11:22:25;10.20;;;0.85;;
32976;SDS011;47687;50.842;4.450;2022-08-18T11:24:53;2.47;;;1.30;;
32976;SDS011;47687;50.842;4.450;2022-08-18T11:27:20;1.80;;;0.95;;
32976;SDS011;47687;50.842;4.450;2022-08-18T11:29:48;0.97;;;0.80;;
32976;SDS011;47687;50.842;4.450;2022-08-18T11:42:53;5.10;;;0.90;;
32976;SDS011;47687;50.842;4.450;2022-08-18T11:45:24;2.55;;;1.23;;
32976;SDS011;47687;50.842;4.450;2022-08-18T11:48:00;1.90;;;1.23;;
32976;SDS011;47687;50.842;4.450;2022-08-18T11:50:43;0.68;;;0.68;;
32976;SDS011;47687;50.842;4.450;2022-08-18T11:53:15;1.70;;;1.10;;
32976;SDS011;47687;50.842;4.450;2022-08-18T11:55:46;0.65;;;0.65;;
32976;SDS011;47687;50.842;4.450;2022-08-18T11:58:48;0.35;;;0.35;;
32976;SDS011;47687;50.842;4.450;2022-08-18T12:06:54;0.68;;;0.68;;
32976;SDS011;47687;50.842;4.450;2022-08-18T12:11:52;2.20;;;1.30;;
32976;SDS011;47687;50.842;4.450;2022-08-18T12:14:19;0.80;;;0.80;;
32976;SDS011;47687;50.842;4.450;2022-08-18T12:16:47;0.45;;;0.45;;
32976;SDS011;47687;50.842;4.450;2022-08-18T12:19:13;0.43;;;0.43;;
32976;SDS011;47687;50.842;4.450;2022-08-18T12:21:59;1.42;;;1.33;;
32976;SDS011;47687;50.842;4.450;2022-08-18T12:26:53;1.17;;;1.08;;
32976;SDS011;47687;50.842;4.450;2022-08-18T12:29:20;0.68;;;0.68;;
32976;SDS011;47687;50.842;4.450;2022-08-18T12:31:47;1.17;;;0.82;;
32976;SDS011;47687;50.842;4.450;2022-08-18T12:34:20;1.27;;;0.95;;
32976;SDS011;47687;50.842;4.450;2022-08-18T12:36:49;0.77;;;0.68;;
32976;SDS011;47687;50.842;4.450;2022-08-18T12:39:16;5.30;;;0.50;;
32976;SDS011;47687;50.842;4.450;2022-08-18T12:41:42;1.17;;;0.90;;
32976;SDS011;47687;50.842;4.450;2022-08-18T12:44:08;1.35;;;0.95;;
32976;SDS011;47687;50.842;4.450;2022-08-18T12:46:34;2.05;;;0.88;;
32976;SDS011;47687;50.842;4.450;2022-08-18T12:49:01;1.38;;;0.88;;
32976;SDS011;47687;50.842;4.450;2022-08-18T12:51:28;1.17;;;0.60;;
32976;SDS011;47687;50.842;4.450;2022-08-18T12:53:54;8.13;;;0.77;;
32976;SDS011;47687;50.842;4.450;2022-08-18T12:56:27;1.27;;;1.02;;
32976;SDS011;47687;50.842;4.450;2022-08-18T12:58:54;0.70;;;0.70;;
32976;SDS011;47687;50.842;4.450;2022-08-18T13:01:21;3.95;;;1.92;;
32976;SDS011;47687;50.842;4.450;2022-08-18T13:03:50;4.60;;;1.98;;
32976;SDS011;47687;50.842;4.450;2022-08-18T13:06:17;2.28;;;1.38;;
32976;SDS011;47687;50.842;4.450;2022-08-18T13:08:44;1.40;;;1.02;;
32976;SDS011;47687;50.842;4.450;2022-08-18T13:11:10;1.17;;;1.08;;
32976;SDS011;47687;50.842;4.450;2022-08-18T13:13:36;0.75;;;0.65;;
32976;SDS011;47687;50.842;4.450;2022-08-18T13:16:03;6.22;;;1.65;;
32976;SDS011;47687;50.842;4.450;2022-08-18T13:18:30;1.95;;;1.20;;
32976;SDS011;47687;50.842;4.450;2022-08-18T13:20:56;1.45;;;1.35;;
32976;SDS011;47687;50.842;4.450;2022-08-18T13:23:22;1.90;;;1.45;;
32976;SDS011;47687;50.842;4.450;2022-08-18T13:25:47;1.45;;;1.35;;
32976;SDS011;47687;50.842;4.450;2022-08-18T13:28:13;0.75;;;0.60;;
32976;SDS011;47687;50.842;4.450;2022-08-18T13:30:39;2.78;;;1.45;;
32976;SDS011;47687;50.842;4.450;2022-08-18T13:33:05;2.15;;;1.35;;
32976;SDS011;47687;50.842;4.450;2022-08-18T13:35:31;0.47;;;0.47;;
32976;SDS011;47687;50.842;4.450;2022-08-18T13:37:58;1.77;;;1.42;;
32976;SDS011;47687;50.842;4.450;2022-08-18T13:40:23;1.58;;;1.33;;
32976;SDS011;47687;50.842;4.450;2022-08-18T13:42:49;3.60;;;1.63;;
32976;SDS011;47687;50.842;4.450;2022-08-18T13:45:17;1.55;;;1.15;;
32976;SDS011;47687;50.842;4.450;2022-08-18T13:47:46;1.15;;;1.05;;
32976;SDS011;47687;50.842;4.450;2022-08-18T13:50:13;1.67;;;0.93;;
32976;SDS011;47687;50.842;4.450;2022-08-18T13:52:40;3.15;;;1.45;;
32976;SDS011;47687;50.842;4.450;2022-08-18T13:55:11;5.18;;;2.10;;
32976;SDS011;47687;50.842;4.450;2022-08-18T13:57:39;0.93;;;0.77;;
32976;SDS011;47687;50.842;4.450;2022-08-18T14:00:12;2.65;;;2.08;;
32976;SDS011;47687;50.842;4.450;2022-08-18T14:02:41;1.05;;;1.05;;
32976;SDS011;47687;50.842;4.450;2022-08-18T14:05:07;1.38;;;1.13;;
32976;SDS011;47687;50.842;4.450;2022-08-18T14:07:33;5.18;;;2.67;;
32976;SDS011;47687;50.842;4.450;2022-08-18T14:10:00;1.83;;;1.35;;
32976;SDS011;47687;50.842;4.450;2022-08-18T14:12:28;2.15;;;1.17;;
32976;SDS011;47687;50.842;4.450;2022-08-18T14:14:53;0.90;;;0.90;;
32976;SDS011;47687;50.842;4.450;2022-08-18T14:17:20;2.50;;;1.80;;
32976;SDS011;47687;50.842;4.450;2022-08-18T14:19:47;2.13;;;1.15;;
32976;SDS011;47687;50.842;4.450;2022-08-18T14:22:31;1.30;;;1.20;;
32976;SDS011;47687;50.842;4.450;2022-08-18T14:25:15;6.10;;;2.33;;
32976;SDS011;47687;50.842;4.450;2022-08-18T14:27:59;7.38;;;3.35;;
32976;SDS011;47687;50.842;4.450;2022-08-18T14:30:25;0.77;;;0.77;;
32976;SDS011;47687;50.842;4.450;2022-08-18T14:32:51;2.42;;;1.48;;
32976;SDS011;47687;50.842;4.450;2022-08-18T14:35:17;1.52;;;1.42;;
32976;SDS011;47687;50.842;4.450;2022-08-18T14:37:43;1.27;;;1.17;;
32976;SDS011;47687;50.842;4.450;2022-08-18T14:40:10;1.80;;;0.75;;
32976;SDS011;47687;50.842;4.450;2022-08-18T14:42:36;1.80;;;1.65;;
32976;SDS011;47687;50.842;4.450;2022-08-18T14:45:03;5.00;;;1.63;;
32976;SDS011;47687;50.842;4.450;2022-08-18T14:47:31;3.22;;;1.13;;
32976;SDS011;47687;50.842;4.450;2022-08-18T14:49:57;2.13;;;0.98;;
32976;SDS011;47687;50.842;4.450;2022-08-18T14:52:23;3.53;;;1.80;;
32976;SDS011;47687;50.842;4.450;2022-08-18T14:54:49;3.70;;;0.50;;
32976;SDS011;47687;50.842;4.450;2022-08-18T14:57:15;0.88;;;0.75;;
32976;SDS011;47687;50.842;4.450;2022-08-18T14:59:41;0.50;;;0.50;;
32976;SDS011;47687;50.842;4.450;2022-08-18T15:02:09;0.65;;;0.65;;
32976;SDS011;47687;50.842;4.450;2022-08-18T15:04:35;3.03;;;1.08;;
32976;SDS011;47687;50.842;4.450;2022-08-18T15:07:01;1.63;;;1.02;;
32976;SDS011;47687;50.842;4.450;2022-08-18T15:09:27;0.98;;;0.98;;
32976;SDS011;47687;50.842;4.450;2022-08-18T15:11:56;0.75;;;0.55;;
32976;SDS011;47687;50.842;4.450;2022-08-18T15:14:24;1.10;;;0.88;;
32976;SDS011;47687;50.842;4.450;2022-08-18T15:16:55;1.02;;;0.82;;
32976;SDS011;47687;50.842;4.450;2022-08-18T15:19:22;0.40;;;0.40;;
32976;SDS011;47687;50.842;4.450;2022-08-18T15:21:48;1.30;;;1.15;;
32976;SDS011;47687;50.842;4.450;2022-08-18T15:24:33;1.27;;;0.52;;
32976;SDS011;47687;50.842;4.450;2022-08-18T15:27:21;0.55;;;0.55;;
32976;SDS011;47687;50.842;4.450;2022-08-18T15:29:47;2.72;;;1.85;;
32976;SDS011;47687;50.842;4.450;2022-08-18T15:32:13;0.40;;;0.40;;
32976;SDS011;47687;50.842;4.450;2022-08-18T15:34:39;2.35;;;1.30;;
32976;SDS011;47687;50.842;4.450;2022-08-18T15:37:07;1.65;;;1.23;;
32976;SDS011;47687;50.842;4.450;2022-08-18T15:39:33;0.60;;;0.60;;
32976;SDS011;47687;50.842;4.450;2022-08-18T15:41:58;1.83;;;1.48;;
32976;SDS011;47687;50.842;4.450;2022-08-18T15:44:24;0.73;;;0.73;;
32976;SDS011;47687;50.842;4.450;2022-08-18T15:46:50;6.53;;;1.17;;
32976;SDS011;47687;50.842;4.450;2022-08-18T15:49:17;1.48;;;1.10;;
32976;SDS011;47687;50.842;4.450;2022-08-18T15:51:43;1.42;;;1.25;;
32976;SDS011;47687;50.842;4.450;2022-08-18T15:54:09;1.70;;;1.30;;
32976;SDS011;47687;50.842;4.450;2022-08-18T15:56:36;0.73;;;0.73;;
32976;SDS011;47687;50.842;4.450;2022-08-18T15:59:03;1.33;;;0.98;;
32976;SDS011;47687;50.842;4.450;2022-08-18T16:01:31;0.77;;;0.77;;
32976;SDS011;47687;50.842;4.450;2022-08-18T16:04:00;0.50;;;0.50;;
32976;SDS011;47687;50.842;4.450;2022-08-18T16:06:27;1.30;;;0.82;;
32976;SDS011;47687;50.842;4.450;2022-08-18T16:08:54;0.82;;;0.55;;
32976;SDS011;47687;50.842;4.450;2022-08-18T16:11:20;0.98;;;0.82;;
32976;SDS011;47687;50.842;4.450;2022-08-18T16:13:47;0.68;;;0.68;;
32976;SDS011;47687;50.842;4.450;2022-08-18T16:16:17;0.57;;;0.45;;
32976;SDS011;47687;50.842;4.450;2022-08-18T16:18:45;0.85;;;0.70;;
32976;SDS011;47687;50.842;4.450;2022-08-18T16:21:14;2.55;;;1.02;;
32976;SDS011;47687;50.842;4.450;2022-08-18T16:23:45;4.05;;;1.38;;
32976;SDS011;47687;50.842;4.450;2022-08-18T16:26:13;1.80;;;1.67;;
32976;SDS011;47687;50.842;4.450;2022-08-18T16:28:44;4.95;;;2.00;;
32976;SDS011;47687;50.842;4.450;2022-08-18T16:31:12;1.58;;;1.35;;
32976;SDS011;47687;50.842;4.450;2022-08-18T16:33:43;2.03;;;1.65;;
32976;SDS011;47687;50.842;4.450;2022-08-18T16:36:10;3.20;;;1.17;;
32976;SDS011;47687;50.842;4.450;2022-08-18T16:38:38;0.57;;;0.57;;
32976;SDS011;47687;50.842;4.450;2022-08-18T16:41:08;0.60;;;0.60;;
32976;SDS011;47687;50.842;4.450;2022-08-18T16:43:35;2.67;;;0.65;;
32976;SDS011;47687;50.842;4.450;2022-08-18T16:46:08;0.60;;;0.60;;
32976;SDS011;47687;50.842;4.450;2022-08-18T16:48:35;0.63;;;0.63;;
32976;SDS011;47687;50.842;4.450;2022-08-18T16:51:01;0.60;;;0.60;;
32976;SDS011;47687;50.842;4.450;2022-08-18T16:53:27;0.70;;;0.70;;
32976;SDS011;47687;50.842;4.450;2022-08-18T16:55:53;0.80;;;0.80;;
32976;SDS011;47687;50.842;4.450;2022-08-18T16:58:19;5.95;;;1.73;;
32976;SDS011;47687;50.842;4.450;2022-08-18T17:01:04;0.77;;;0.52;;
32976;SDS011;47687;50.842;4.450;2022-08-18T17:03:48;1.00;;;0.90;;
32976;SDS011;47687;50.842;4.450;2022-08-18T17:06:32;0.57;;;0.57;;
32976;SDS011;47687;50.842;4.450;2022-08-18T17:08:59;2.05;;;1.10;;
32976;SDS011;47687;50.842;4.450;2022-08-18T17:11:26;2.03;;;1.08;;
32976;SDS011;47687;50.842;4.450;2022-08-18T17:13:52;1.00;;;0.63;;
32976;SDS011;47687;50.842;4.450;2022-08-18T17:16:21;0.73;;;0.60;;
32976;SDS011;47687;50.842;4.450;2022-08-18T17:18:49;27.52;;;2.05;;
32976;SDS011;47687;50.842;4.450;2022-08-18T17:21:17;1.83;;;1.73;;
32976;SDS011;47687;50.842;4.450;2022-08-18T17:29:11;0.47;;;0.40;;
32976;SDS011;47687;50.842;4.450;2022-08-18T17:31:43;1.30;;;0.97;;
32976;SDS011;47687;50.842;4.450;2022-08-18T17:34:44;0.57;;;0.40;;
32976;SDS011;47687;50.842;4.450;2022-08-18T17:37:16;0.50;;;0.50;;
32976;SDS011;47687;50.842;4.450;2022-08-18T17:39:45;0.55;;;0.55;;
32976;SDS011;47687;50.842;4.450;2022-08-18T17:42:17;0.95;;;0.85;;
32976;SDS011;47687;50.842;4.450;2022-08-18T17:44:57;0.70;;;0.70;;